createdAt,value
2023-05-05T00:03:27.187Z,67.63
2023-05-05T00:08:28.986Z,68.18
2023-05-05T00:13:30.612Z,68.47
2023-05-05T00:18:33.774Z,67.89
2023-05-05T00:23:35.436Z,68.62
2023-05-05T00:28:37.016Z,68.69
2023-05-05T00:33:38.741Z,68.69
2023-05-05T00:38:41.614Z,68.77
2023-05-05T00:43:43.225Z,69.13
2023-05-05T00:48:45.544Z,69.42
2023-05-05T00:53:50.595Z,69.92
2023-05-05T00:58:52.286Z,68.46
2023-05-05T01:03:54.003Z,68.64
2023-05-05T01:09:12.193Z,68.47
2023-05-05T01:14:20.459Z,68.25
2023-05-05T01:19:40.507Z,68.72
2023-05-05T01:25:00.512Z,68.97
2023-05-05T01:30:03.874Z,68.86
2023-05-05T01:35:15.088Z,68.84
2023-05-05T01:40:23.793Z,69.29
2023-05-05T01:45:27.180Z,69.11
2023-05-05T01:50:29.069Z,69.23
2023-05-05T01:55:32.429Z,69.52
2023-05-05T02:00:34.583Z,69.23
2023-05-05T02:05:39.066Z,69.64
2023-05-05T02:10:40.867Z,70.02
2023-05-05T02:15:44.010Z,70.13
2023-05-05T02:20:46.793Z,70.25
2023-05-05T02:25:55.498Z,70.23
2023-05-05T02:30:58.422Z,69.80
2023-05-05T02:36:22.116Z,69.62
2023-05-05T02:41:29.661Z,69.10
2023-05-05T02:46:33.774Z,69.52
2023-05-05T02:51:35.579Z,69.04
2023-05-05T02:56:50.172Z,68.51
2023-05-05T03:02:07.689Z,67.88
2023-05-05T03:07:14.418Z,68.22
2023-05-05T03:12:22.624Z,68.17
2023-05-05T03:17:37.209Z,68.79
2023-05-05T03:22:39.392Z,69.40
2023-05-05T03:27:45.942Z,70.41
2023-05-05T03:32:50.559Z,70.20
2023-05-05T03:37:52.550Z,70.76
2023-05-05T03:42:54.235Z,70.56
2023-05-05T03:47:56.208Z,70.55
2023-05-05T03:52:58.053Z,70.40
2023-05-05T03:58:00.073Z,70.98
2023-05-05T04:03:01.966Z,71.07
2023-05-05T04:08:04.911Z,70.75
2023-05-05T04:13:07.331Z,70.49
2023-05-05T04:18:09.417Z,70.52
2023-05-05T04:23:11.166Z,70.81
2023-05-05T04:28:13.495Z,70.86
2023-05-05T04:33:15.172Z,71.44
2023-05-05T04:38:17.278Z,71.37
2023-05-05T04:43:19.836Z,70.79
2023-05-05T04:48:21.996Z,70.37
2023-05-05T04:53:23.732Z,69.40
2023-05-05T04:58:25.653Z,68.08
2023-05-05T05:03:27.422Z,65.96
2023-05-05T05:08:29.090Z,66.13
2023-05-05T05:13:30.810Z,65.71
2023-05-05T05:18:32.411Z,66.17
2023-05-05T05:23:34.347Z,66.48
2023-05-05T05:28:36.327Z,65.83
2023-05-05T05:33:37.953Z,64.60
2023-05-05T05:38:40.319Z,63.76
2023-05-05T05:43:42.376Z,63.15
2023-05-05T05:48:44.154Z,62.91
2023-05-05T05:53:45.918Z,62.83
2023-05-05T05:58:48.869Z,62.11
2023-05-05T06:03:51.104Z,62.54
2023-05-05T06:08:53.062Z,61.87
2023-05-05T06:13:55.096Z,62.04
2023-05-05T06:18:56.955Z,61.45
2023-05-05T06:23:58.600Z,60.47
2023-05-05T06:29:01.148Z,59.43
2023-05-05T06:34:02.934Z,59.60
2023-05-05T06:39:04.531Z,59.38
2023-05-05T06:44:06.085Z,59.02
2023-05-05T06:49:07.690Z,58.48
2023-05-05T06:54:09.286Z,57.60
2023-05-05T06:59:11.260Z,57.11
2023-05-05T07:04:12.992Z,56.82
2023-05-05T07:09:16.891Z,55.74
2023-05-05T07:14:18.748Z,55.13
2023-05-05T07:19:20.315Z,54.22
2023-05-05T07:24:21.975Z,53.08
2023-05-05T07:29:23.524Z,52.41
2023-05-05T07:34:25.505Z,51.42
2023-05-05T07:39:27.099Z,50.89
2023-05-05T07:44:28.676Z,50.69
2023-05-05T07:49:30.285Z,50.18
2023-05-05T07:54:32.076Z,49.75
2023-05-05T07:59:34.567Z,49.63
2023-05-05T08:04:36.227Z,49.20
2023-05-05T08:09:38.186Z,48.42
2023-05-05T08:14:42.387Z,47.90
2023-05-05T08:19:43.972Z,46.81
2023-05-05T08:24:46.198Z,46.63
2023-05-05T08:29:47.833Z,46.64
2023-05-05T08:34:49.439Z,46.34
2023-05-05T08:39:51.009Z,46.20
2023-05-05T08:44:53.084Z,45.64
2023-05-05T08:49:55.697Z,45.01
2023-05-05T08:55:08.709Z,43.42
2023-05-05T09:00:11.227Z,42.93
2023-05-05T09:05:12.874Z,43.26
2023-05-05T09:10:14.541Z,41.99
2023-05-05T09:15:16.326Z,42.82
2023-05-05T09:20:17.933Z,42.70
2023-05-05T09:25:19.518Z,41.53
2023-05-05T09:30:24.958Z,41.86
2023-05-05T09:35:26.839Z,40.69
2023-05-05T09:40:45.287Z,40.98
2023-05-05T09:45:48.771Z,41.48
2023-05-05T09:50:50.385Z,40.12
2023-05-05T09:55:59.870Z,40.77
2023-05-05T10:01:01.529Z,41.35
2023-05-05T10:06:04.621Z,41.44
2023-05-05T10:11:07.015Z,42.15
2023-05-05T10:16:09.699Z,40.72
2023-05-05T10:21:12.453Z,41.06
2023-05-05T10:26:15.178Z,40.60
2023-05-05T10:31:48.050Z,41.48
2023-05-05T10:36:49.786Z,41.63
2023-05-05T10:41:51.477Z,40.88
2023-05-05T10:46:53.085Z,39.29
2023-05-05T10:52:13.431Z,38.03
2023-05-05T10:57:16.808Z,37.10
2023-05-05T11:02:18.386Z,37.85
2023-05-05T11:07:23.838Z,37.60
2023-05-05T11:12:25.696Z,37.22
2023-05-05T11:17:46.602Z,37.59
2023-05-05T11:23:03.480Z,36.98
2023-05-05T11:28:11.093Z,36.62
2023-05-05T11:33:29.096Z,37.52
2023-05-05T11:38:36.324Z,36.99
2023-05-05T11:43:38.353Z,36.77
2023-05-05T11:48:49.379Z,36.23
2023-05-05T11:53:51.071Z,36.60
2023-05-05T11:59:09.186Z,36.77
2023-05-05T12:04:17.209Z,37.29
2023-05-05T12:09:20.293Z,37.18
2023-05-05T12:14:22.594Z,36.20
2023-05-05T12:19:24.402Z,35.37
2023-05-05T12:24:26.053Z,34.76
2023-05-05T12:29:29.094Z,34.48
2023-05-05T12:34:31.736Z,33.62
2023-05-05T12:39:39.127Z,34.24
2023-05-05T12:44:41.477Z,34.34
2023-05-05T12:49:50.943Z,34.51
2023-05-05T12:54:56.898Z,34.61
2023-05-05T12:59:58.532Z,35.13
2023-05-05T13:05:00.158Z,34.84
2023-05-05T13:10:11.122Z,34.84
2023-05-05T13:15:13.062Z,34.75
2023-05-05T13:20:15.039Z,34.12
2023-05-05T13:25:16.659Z,33.83
2023-05-05T13:30:18.273Z,33.45
2023-05-05T13:35:19.866Z,33.11
2023-05-05T13:40:22.270Z,32.23
2023-05-05T13:45:24.858Z,31.89
2023-05-05T13:50:26.475Z,31.97
2023-05-05T13:55:29.135Z,32.40
2023-05-05T14:00:30.931Z,33.20
2023-05-05T14:05:33.913Z,33.68
2023-05-05T14:10:36.266Z,33.93
2023-05-05T14:15:38.394Z,34.35
2023-05-05T14:20:39.988Z,34.83
2023-05-05T14:25:41.635Z,34.00
2023-05-05T14:30:43.291Z,34.65
2023-05-05T14:35:44.874Z,34.36
2023-05-05T14:40:46.443Z,34.35
2023-05-05T14:45:48.095Z,34.34
2023-05-05T14:50:49.944Z,34.31
2023-05-05T14:55:51.681Z,34.18
2023-05-05T15:00:54.509Z,34.55
2023-05-05T15:05:56.383Z,34.33
2023-05-05T15:10:58.069Z,34.87
2023-05-05T15:15:59.678Z,34.82
2023-05-05T15:21:01.279Z,34.82
2023-05-05T15:26:02.931Z,34.49
2023-05-05T15:31:05.954Z,34.19
2023-05-05T15:36:07.922Z,34.33
2023-05-05T15:41:09.529Z,34.05
2023-05-05T15:46:11.074Z,33.92
2023-05-05T15:51:12.826Z,33.98
2023-05-05T15:56:14.392Z,33.79
2023-05-05T16:01:16.540Z,33.95
2023-05-05T16:06:18.122Z,33.99
2023-05-05T16:11:22.324Z,33.78
2023-05-05T16:16:24.068Z,33.96
2023-05-05T16:21:25.862Z,34.00
2023-05-05T16:26:27.403Z,34.56
2023-05-05T16:31:29.080Z,35.12
2023-05-05T16:36:31.611Z,34.58
2023-05-05T16:41:33.254Z,34.49
2023-05-05T16:46:39.969Z,34.86
2023-05-05T16:51:41.649Z,35.06
2023-05-05T16:56:43.220Z,35.60
2023-05-05T17:01:44.897Z,36.22
2023-05-05T17:06:46.467Z,36.48
2023-05-05T17:11:48.037Z,36.67
2023-05-05T17:16:49.989Z,37.13
2023-05-05T17:21:51.595Z,37.71
2023-05-05T17:26:53.218Z,37.89
2023-05-05T17:31:55.071Z,38.09
2023-05-05T17:36:57.052Z,38.76
2023-05-05T17:41:58.680Z,38.70
2023-05-05T17:47:00.423Z,39.30
2023-05-05T17:52:02.091Z,39.24
2023-05-05T17:57:04.164Z,39.38
2023-05-05T18:02:05.737Z,39.33
2023-05-05T18:07:07.686Z,41.19
2023-05-05T18:12:09.313Z,43.08
2023-05-05T18:17:10.991Z,44.61
2023-05-05T18:22:13.596Z,45.46
2023-05-05T18:27:15.550Z,45.59
2023-05-05T18:32:17.149Z,45.83
2023-05-05T18:37:18.737Z,45.58
2023-05-05T18:42:20.306Z,45.72
2023-05-05T18:47:22.056Z,45.26
2023-05-05T18:52:23.641Z,45.79
2023-05-05T18:57:25.918Z,46.09
2023-05-05T19:02:27.523Z,46.32
2023-05-05T19:07:35.542Z,46.72
2023-05-05T19:12:37.697Z,46.85
2023-05-05T19:17:39.353Z,47.07
2023-05-05T19:22:41.038Z,47.00
2023-05-05T19:27:42.698Z,46.58
2023-05-05T19:32:45.240Z,46.75
2023-05-05T19:37:46.842Z,46.61
2023-05-05T19:42:48.440Z,46.54
2023-05-05T19:47:50.080Z,46.72
2023-05-05T19:52:51.707Z,46.96
2023-05-05T19:57:53.408Z,47.44
2023-05-05T20:02:55.123Z,46.87
2023-05-05T20:07:56.949Z,46.56
2023-05-05T20:12:58.759Z,47.06
2023-05-05T20:18:00.608Z,47.38
2023-05-05T20:23:02.311Z,47.45
2023-05-05T20:28:03.998Z,47.56
2023-05-05T20:33:05.670Z,47.89
2023-05-05T20:38:07.373Z,47.89
2023-05-05T20:43:08.977Z,48.71
2023-05-05T20:48:11.484Z,49.81
2023-05-05T20:53:16.054Z,49.43
2023-05-05T20:58:17.752Z,49.54
2023-05-05T21:03:19.343Z,49.20
2023-05-05T21:08:21.206Z,49.63
2023-05-05T21:13:22.938Z,49.49
2023-05-05T21:18:25.747Z,49.73
2023-05-05T21:23:27.431Z,50.05
2023-05-05T21:28:29.000Z,50.34
2023-05-05T21:33:30.732Z,50.73
2023-05-05T21:38:32.388Z,51.14
2023-05-05T21:43:34.097Z,51.43
2023-05-05T21:48:38.590Z,52.06
2023-05-05T21:53:40.681Z,52.34
2023-05-05T21:58:42.230Z,53.08
2023-05-05T22:03:43.970Z,53.54
2023-05-05T22:08:46.315Z,53.41
2023-05-05T22:13:48.056Z,53.71
2023-05-05T22:18:49.752Z,53.45
2023-05-05T22:23:51.324Z,54.37
2023-05-05T22:28:52.876Z,54.64
2023-05-05T22:33:54.528Z,54.62
2023-05-05T22:38:56.361Z,55.25
2023-05-05T22:43:57.992Z,56.32
2023-05-05T22:48:59.805Z,57.32
2023-05-05T22:54:02.643Z,58.17
2023-05-05T22:59:05.419Z,59.65
2023-05-05T23:04:07.481Z,61.40
2023-05-05T23:09:09.362Z,64.88
2023-05-05T23:14:11.048Z,69.71
2023-05-05T23:19:13.651Z,67.62
2023-05-05T23:24:15.307Z,67.61
2023-05-05T23:29:16.897Z,71.56
2023-05-05T23:34:18.480Z,65.54
2023-05-05T23:39:20.038Z,69.54
2023-05-05T23:44:21.601Z,67.24
2023-05-05T23:49:24.896Z,70.45
2023-05-05T23:54:26.514Z,71.27
2023-05-05T23:59:28.069Z,69.49
